createdAt,value
2023-02-16T00:21:52.887Z,38.9
2023-02-16T00:51:54.921Z,37.5
2023-02-16T01:21:55.295Z,44.4
2023-02-16T01:51:57.019Z,42.2
2023-02-16T02:22:18.184Z,44.5
2023-02-16T02:51:54.467Z,47.2
2023-02-16T03:22:06.641Z,48.2
2023-02-16T03:51:54.536Z,46.2
2023-02-16T04:21:56.256Z,50.2
2023-02-16T04:51:55.588Z,49
2023-02-16T05:21:56.229Z,47.6
2023-02-16T05:51:59.479Z,49.2
2023-02-16T06:21:57.749Z,47.9
2023-02-16T06:51:58.165Z,51.8
2023-02-16T07:21:58.874Z,47.9
2023-02-16T07:51:59.279Z,50.3
2023-02-16T08:21:59.742Z,48
2023-02-16T08:52:01.808Z,49.3
2023-02-16T09:22:00.709Z,46.5
2023-02-16T09:52:04.600Z,46.8
2023-02-16T10:22:03.940Z,48.9
2023-02-16T10:52:03.064Z,54.6
2023-02-16T11:22:02.888Z,49.7
2023-02-16T11:52:04.058Z,47.7
2023-02-16T12:22:08.383Z,46.2
2023-02-16T12:52:08.357Z,36.3
2023-02-16T13:22:20.639Z,32.7
2023-02-16T13:52:08.544Z,32.5
2023-02-16T14:22:17.783Z,27.4
2023-02-16T14:52:22.479Z,25.5
2023-02-16T15:22:23.230Z,31.4
2023-02-16T15:52:16.747Z,31.3
2023-02-16T16:22:29.888Z,28.3
2023-02-16T16:52:15.763Z,26.7
2023-02-16T17:22:20.678Z,20.5
2023-02-16T17:52:20.775Z,12.3
2023-02-16T18:22:17.901Z,6.5
2023-02-16T18:52:21.742Z,7.3
2023-02-16T19:22:22.365Z,10.5
2023-02-16T19:52:24.325Z,12.2
2023-02-16T20:22:24.712Z,11.6
2023-02-16T20:52:23.216Z,14.6
2023-02-16T21:22:24.528Z,13.5
2023-02-16T21:52:24.955Z,16.8
2023-02-16T22:22:25.901Z,15.5
2023-02-16T22:52:26.877Z,15.6
2023-02-16T23:22:27.834Z,15.6
2023-02-16T23:52:28.795Z,18.9
